sensor_id;sensor_type;location;lat;lon;timestamp;pressure;altitude;pressure_sealevel;temperature;humidity
15884;BME280;8040;50.254;10.960;2023-02-28T00:00:48;99270.94;;;1.09;55.61
15884;BME280;8040;50.254;10.960;2023-02-28T00:03:13;99265.19;;;1.12;55.66
15884;BME280;8040;50.254;10.960;2023-02-28T00:05:39;99274.56;;;1.27;55.46
15884;BME280;8040;50.254;10.960;2023-02-28T00:08:04;99259.78;;;1.18;55.42
15884;BME280;8040;50.254;10.960;2023-02-28T00:10:31;99278.16;;;1.39;55.25
15884;BME280;8040;50.254;10.960;2023-02-28T00:13:02;99273.22;;;1.43;54.89
15884;BME280;8040;50.254;10.960;2023-02-28T00:15:28;99278.06;;;1.52;54.66
15884;BME280;8040;50.254;10.960;2023-02-28T00:17:54;99249.28;;;1.23;54.87
15884;BME280;8040;50.254;10.960;2023-02-28T00:20:20;99266.47;;;1.34;54.67
15884;BME280;8040;50.254;10.960;2023-02-28T00:22:48;99253.06;;;1.09;55.03
15884;BME280;8040;50.254;10.960;2023-02-28T00:25:16;99254.00;;;0.90;55.56
15884;BME280;8040;50.254;10.960;2023-02-28T00:27:43;99248.91;;;0.82;55.60
15884;BME280;8040;50.254;10.960;2023-02-28T00:30:14;99248.47;;;0.85;55.83
15884;BME280;8040;50.254;10.960;2023-02-28T00:32:40;99249.88;;;0.94;55.70
15884;BME280;8040;50.254;10.960;2023-02-28T00:35:06;99265.56;;;1.15;55.65
15884;BME280;8040;50.254;10.960;2023-02-28T00:37:34;99251.84;;;1.05;55.58
15884;BME280;8040;50.254;10.960;2023-02-28T00:39:59;99250.81;;;1.06;55.56
15884;BME280;8040;50.254;10.960;2023-02-28T00:42:25;99263.50;;;1.17;55.42
15884;BME280;8040;50.254;10.960;2023-02-28T00:44:50;99261.56;;;1.31;55.59
15884;BME280;8040;50.254;10.960;2023-02-28T00:47:16;99261.38;;;1.32;55.25
15884;BME280;8040;50.254;10.960;2023-02-28T00:49:41;99260.53;;;1.32;54.83
15884;BME280;8040;50.254;10.960;2023-02-28T00:52:07;99261.38;;;1.32;55.09
15884;BME280;8040;50.254;10.960;2023-02-28T00:54:33;99267.81;;;1.18;55.16
15884;BME280;8040;50.254;10.960;2023-02-28T00:56:58;99259.75;;;1.25;55.05
15884;BME280;8040;50.254;10.960;2023-02-28T00:59:24;99255.97;;;1.39;54.88
15884;BME280;8040;50.254;10.960;2023-02-28T01:01:49;99262.06;;;1.46;55.22
15884;BME280;8040;50.254;10.960;2023-02-28T01:04:15;99266.16;;;1.48;55.06
15884;BME280;8040;50.254;10.960;2023-02-28T01:06:40;99254.22;;;1.26;54.79
15884;BME280;8040;50.254;10.960;2023-02-28T01:09:07;99264.13;;;1.19;55.37
15884;BME280;8040;50.254;10.960;2023-02-28T01:11:33;99248.63;;;0.97;55.65
15884;BME280;8040;50.254;10.960;2023-02-28T01:13:59;99256.81;;;1.02;56.17
15884;BME280;8040;50.254;10.960;2023-02-28T01:16:25;99261.09;;;1.09;55.57
15884;BME280;8040;50.254;10.960;2023-02-28T01:18:51;99249.31;;;0.86;55.98
15884;BME280;8040;50.254;10.960;2023-02-28T01:21:18;99247.50;;;0.80;56.06
15884;BME280;8040;50.254;10.960;2023-02-28T01:23:44;99252.59;;;0.81;56.65
15884;BME280;8040;50.254;10.960;2023-02-28T01:26:15;99241.25;;;0.92;56.40
15884;BME280;8040;50.254;10.960;2023-02-28T01:28:41;99240.47;;;0.85;56.35
15884;BME280;8040;50.254;10.960;2023-02-28T01:31:08;99246.78;;;0.91;56.17
15884;BME280;8040;50.254;10.960;2023-02-28T01:33:34;99235.97;;;0.86;56.18
15884;BME280;8040;50.254;10.960;2023-02-28T01:36:05;99244.78;;;0.86;56.82
15884;BME280;8040;50.254;10.960;2023-02-28T01:38:32;99242.09;;;0.86;56.52
15884;BME280;8040;50.254;10.960;2023-02-28T01:40:57;99234.94;;;0.87;56.58
15884;BME280;8040;50.254;10.960;2023-02-28T01:43:28;99240.47;;;0.85;56.75
15884;BME280;8040;50.254;10.960;2023-02-28T01:45:55;99226.53;;;0.83;56.13
15884;BME280;8040;50.254;10.960;2023-02-28T01:48:31;99239.69;;;0.78;56.76
15884;BME280;8040;50.254;10.960;2023-02-28T01:51:01;99231.03;;;0.83;56.29
15884;BME280;8040;50.254;10.960;2023-02-28T01:53:35;99208.31;;;0.67;56.25
15884;BME280;8040;50.254;10.960;2023-02-28T01:56:05;99223.41;;;0.86;56.29
15884;BME280;8040;50.254;10.960;2023-02-28T01:58:32;99225.22;;;0.92;55.80
15884;BME280;8040;50.254;10.960;2023-02-28T02:00:58;99213.94;;;0.90;55.91
15884;BME280;8040;50.254;10.960;2023-02-28T02:03:23;99210.72;;;0.82;55.69
15884;BME280;8040;50.254;10.960;2023-02-28T02:05:49;99214.63;;;0.79;56.06
15884;BME280;8040;50.254;10.960;2023-02-28T02:08:19;99224.34;;;0.67;55.94
15884;BME280;8040;50.254;10.960;2023-02-28T02:10:49;99211.34;;;0.77;56.10
15884;BME280;8040;50.254;10.960;2023-02-28T02:16:08;99224.03;;;0.88;55.00
15884;BME280;8040;50.254;10.960;2023-02-28T02:18:43;99215.59;;;0.91;54.77
15884;BME280;8040;50.254;10.960;2023-02-28T02:30:24;99208.31;;;0.67;54.83
15884;BME280;8040;50.254;10.960;2023-02-28T02:43:58;99205.56;;;0.80;53.40
15884;BME280;8040;50.254;10.960;2023-02-28T02:46:39;99189.22;;;0.70;53.50
15884;BME280;8040;50.254;10.960;2023-02-28T02:49:09;99203.09;;;0.79;53.54
15884;BME280;8040;50.254;10.960;2023-02-28T02:51:38;99197.34;;;0.88;53.49
15884;BME280;8040;50.254;10.960;2023-02-28T02:54:08;99208.16;;;0.93;53.66
15884;BME280;8040;50.254;10.960;2023-02-28T02:56:36;99202.44;;;0.90;53.87
15884;BME280;8040;50.254;10.960;2023-02-28T02:59:07;99196.50;;;0.88;54.26
15884;BME280;8040;50.254;10.960;2023-02-28T03:01:35;99188.91;;;0.85;54.25
15884;BME280;8040;50.254;10.960;2023-02-28T03:04:07;99205.66;;;0.98;54.41
15884;BME280;8040;50.254;10.960;2023-02-28T03:06:33;99158.19;;;0.69;54.43
15884;BME280;8040;50.254;10.960;2023-02-28T03:09:00;99207.28;;;1.06;54.56
15884;BME280;8040;50.254;10.960;2023-02-28T03:11:26;99205.19;;;1.08;54.53
15884;BME280;8040;50.254;10.960;2023-02-28T03:22:43;99198.25;;;1.00;54.69
15884;BME280;8040;50.254;10.960;2023-02-28T03:27:58;99203.22;;;0.97;53.88
15884;BME280;8040;50.254;10.960;2023-02-28T03:30:41;99187.03;;;0.92;53.69
15884;BME280;8040;50.254;10.960;2023-02-28T03:33:37;99205.94;;;0.90;53.40
15884;BME280;8040;50.254;10.960;2023-02-28T03:36:04;99202.44;;;0.90;53.41
15884;BME280;8040;50.254;10.960;2023-02-28T03:38:51;99196.28;;;0.89;53.63
15884;BME280;8040;50.254;10.960;2023-02-28T03:41:19;99214.47;;;1.05;54.00
15884;BME280;8040;50.254;10.960;2023-02-28T03:43:54;99199.94;;;0.95;53.53
15884;BME280;8040;50.254;10.960;2023-02-28T03:46:23;99208.94;;;1.00;53.88
15884;BME280;8040;50.254;10.960;2023-02-28T03:49:06;99204.16;;;1.09;54.03
15884;BME280;8040;50.254;10.960;2023-02-28T03:51:38;99208.03;;;1.13;53.85
15884;BME280;8040;50.254;10.960;2023-02-28T03:54:18;99202.91;;;1.11;53.96
15884;BME280;8040;50.254;10.960;2023-02-28T03:57:10;99193.09;;;1.05;54.09
15884;BME280;8040;50.254;10.960;2023-02-28T03:59:40;99200.06;;;1.06;53.85
15884;BME280;8040;50.254;10.960;2023-02-28T04:02:07;99215.84;;;1.14;53.93
15884;BME280;8040;50.254;10.960;2023-02-28T04:04:33;99208.88;;;1.13;53.95
15884;BME280;8040;50.254;10.960;2023-02-28T04:07:05;99212.66;;;0.99;53.56
15884;BME280;8040;50.254;10.960;2023-02-28T04:09:31;99211.88;;;0.92;54.01
15884;BME280;8040;50.254;10.960;2023-02-28T04:11:56;99210.84;;;0.93;53.76
15884;BME280;8040;50.254;10.960;2023-02-28T04:14:22;99220.41;;;0.76;52.93
15884;BME280;8040;50.254;10.960;2023-02-28T04:16:48;99224.59;;;0.53;52.88
15884;BME280;8040;50.254;10.960;2023-02-28T04:19:14;99218.22;;;0.54;53.05
15884;BME280;8040;50.254;10.960;2023-02-28T04:21:44;99225.56;;;0.65;53.72
15884;BME280;8040;50.254;10.960;2023-02-28T04:24:21;99218.47;;;0.39;53.76
15884;BME280;8040;50.254;10.960;2023-02-28T04:26:50;99207.03;;;0.32;53.36
15884;BME280;8040;50.254;10.960;2023-02-28T04:29:20;99208.78;;;0.51;53.43
15884;BME280;8040;50.254;10.960;2023-02-28T04:31:46;99224.19;;;0.56;53.49
15884;BME280;8040;50.254;10.960;2023-02-28T04:34:12;99216.78;;;0.51;53.40
15884;BME280;8040;50.254;10.960;2023-02-28T04:36:37;99208.38;;;0.61;53.29
15884;BME280;8040;50.254;10.960;2023-02-28T04:39:03;99217.97;;;0.68;52.73
15884;BME280;8040;50.254;10.960;2023-02-28T04:41:29;99226.81;;;0.62;53.00
15884;BME280;8040;50.254;10.960;2023-02-28T04:43:54;99217.44;;;0.53;52.93
15884;BME280;8040;50.254;10.960;2023-02-28T04:46:21;99215.34;;;0.55;53.55
15884;BME280;8040;50.254;10.960;2023-02-28T04:48:47;99210.06;;;0.42;53.48
15884;BME280;8040;50.254;10.960;2023-02-28T04:51:14;99219.44;;;0.64;54.07
15884;BME280;8040;50.254;10.960;2023-02-28T04:53:41;99214.50;;;0.61;53.35
15884;BME280;8040;50.254;10.960;2023-02-28T04:56:07;99221.47;;;0.62;53.51
15884;BME280;8040;50.254;10.960;2023-02-28T04:58:34;99217.03;;;0.43;53.67
15884;BME280;8040;50.254;10.960;2023-02-28T05:01:04;99211.47;;;0.51;54.24
15884;BME280;8040;50.254;10.960;2023-02-28T05:03:38;99236.91;;;0.60;53.78
15884;BME280;8040;50.254;10.960;2023-02-28T05:06:08;99222.72;;;0.60;54.59
15884;BME280;8040;50.254;10.960;2023-02-28T05:08:34;99212.03;;;0.60;54.05
15884;BME280;8040;50.254;10.960;2023-02-28T05:11:00;99224.16;;;0.62;53.94
15884;BME280;8040;50.254;10.960;2023-02-28T05:13:29;99235.84;;;0.68;53.89
15884;BME280;8040;50.254;10.960;2023-02-28T05:15:55;99233.00;;;0.56;53.54
15884;BME280;8040;50.254;10.960;2023-02-28T05:18:21;99223.16;;;0.57;53.86
15884;BME280;8040;50.254;10.960;2023-02-28T05:20:46;99217.88;;;0.44;54.06
15884;BME280;8040;50.254;10.960;2023-02-28T05:23:13;99234.09;;;0.36;54.26
15884;BME280;8040;50.254;10.960;2023-02-28T05:25:39;99224.53;;;0.15;54.50
15884;BME280;8040;50.254;10.960;2023-02-28T05:28:05;99240.56;;;0.15;54.74
15884;BME280;8040;50.254;10.960;2023-02-28T05:30:31;99235.41;;;0.07;55.42
15884;BME280;8040;50.254;10.960;2023-02-28T05:32:57;99248.78;;;0.01;55.63
15884;BME280;8040;50.254;10.960;2023-02-28T05:35:22;99231.97;;;-0.06;55.88
15884;BME280;8040;50.254;10.960;2023-02-28T05:37:48;99251.84;;;-0.02;56.25
15884;BME280;8040;50.254;10.960;2023-02-28T05:40:13;99236.25;;;0.01;56.16
15884;BME280;8040;50.254;10.960;2023-02-28T05:42:40;99243.41;;;0.07;56.28
15884;BME280;8040;50.254;10.960;2023-02-28T05:45:07;99234.59;;;0.13;55.74
15884;BME280;8040;50.254;10.960;2023-02-28T05:47:32;99235.38;;;0.27;55.89
15884;BME280;8040;50.254;10.960;2023-02-28T05:49:58;99234.34;;;0.28;55.47
15884;BME280;8040;50.254;10.960;2023-02-28T05:52:23;99242.56;;;0.26;55.57
15884;BME280;8040;50.254;10.960;2023-02-28T05:54:49;99242.19;;;0.16;55.84
15884;BME280;8040;50.254;10.960;2023-02-28T05:57:14;99244.44;;;0.06;56.49
15884;BME280;8040;50.254;10.960;2023-02-28T05:59:40;99257.16;;;0.17;56.33
15884;BME280;8040;50.254;10.960;2023-02-28T06:02:08;99259.38;;;0.20;56.49
15884;BME280;8040;50.254;10.960;2023-02-28T06:04:38;99255.28;;;0.18;56.73
15884;BME280;8040;50.254;10.960;2023-02-28T06:07:03;99257.59;;;0.01;57.30
15884;BME280;8040;50.254;10.960;2023-02-28T06:12:01;99269.28;;;0.00;57.86
15884;BME280;8040;50.254;10.960;2023-02-28T06:14:29;99262.31;;;-0.07;58.03
15884;BME280;8040;50.254;10.960;2023-02-28T06:17:00;99274.63;;;0.00;57.75
15884;BME280;8040;50.254;10.960;2023-02-28T06:19:26;99267.47;;;-0.12;58.43
15884;BME280;8040;50.254;10.960;2023-02-28T06:21:53;99272.56;;;-0.11;58.37
15884;BME280;8040;50.254;10.960;2023-02-28T06:24:23;99270.31;;;-0.20;58.82
15884;BME280;8040;50.254;10.960;2023-02-28T06:26:50;99276.47;;;-0.07;58.62
15884;BME280;8040;50.254;10.960;2023-02-28T06:29:16;99267.66;;;-0.13;58.72
15884;BME280;8040;50.254;10.960;2023-02-28T06:31:44;99282.44;;;-0.11;58.72
15884;BME280;8040;50.254;10.960;2023-02-28T06:34:10;99285.28;;;0.00;58.96
15884;BME280;8040;50.254;10.960;2023-02-28T06:36:40;99276.88;;;-0.10;58.77
15884;BME280;8040;50.254;10.960;2023-02-28T06:39:09;99295.53;;;-0.10;59.00
15884;BME280;8040;50.254;10.960;2023-02-28T06:44:25;99301.47;;;-0.01;59.07
15884;BME280;8040;50.254;10.960;2023-02-28T06:46:50;99282.41;;;0.08;58.76
15884;BME280;8040;50.254;10.960;2023-02-28T06:49:16;99292.66;;;0.11;58.79
15884;BME280;8040;50.254;10.960;2023-02-28T06:51:43;99305.19;;;0.17;58.71
15884;BME280;8040;50.254;10.960;2023-02-28T06:54:12;99291.84;;;0.11;58.54
15884;BME280;8040;50.254;10.960;2023-02-28T06:56:38;99304.31;;;0.30;58.48
15884;BME280;8040;50.254;10.960;2023-02-28T07:01:39;99299.59;;;0.25;58.67
15884;BME280;8040;50.254;10.960;2023-02-28T07:04:05;99313.56;;;0.34;58.63
15884;BME280;8040;50.254;10.960;2023-02-28T07:06:31;99306.41;;;0.21;58.85
15884;BME280;8040;50.254;10.960;2023-02-28T07:08:57;99299.19;;;0.41;58.50
15884;BME280;8040;50.254;10.960;2023-02-28T07:11:52;99282.97;;;0.36;57.99
15884;BME280;8040;50.254;10.960;2023-02-28T07:17:13;99304.47;;;0.54;57.79
15884;BME280;8040;50.254;10.960;2023-02-28T07:19:39;99312.25;;;0.62;57.64
15884;BME280;8040;50.254;10.960;2023-02-28T07:22:05;99316.59;;;0.50;57.60
15884;BME280;8040;50.254;10.960;2023-02-28T07:24:30;99306.94;;;0.56;57.67
15884;BME280;8040;50.254;10.960;2023-02-28T07:26:56;99323.91;;;0.74;57.20
15884;BME280;8040;50.254;10.960;2023-02-28T07:29:21;99325.97;;;0.72;56.70
15884;BME280;8040;50.254;10.960;2023-02-28T07:31:47;99317.97;;;0.72;56.88
15884;BME280;8040;50.254;10.960;2023-02-28T07:34:13;99325.34;;;0.83;56.79
15884;BME280;8040;50.254;10.960;2023-02-28T07:36:39;99326.19;;;0.77;56.71
15884;BME280;8040;50.254;10.960;2023-02-28T07:39:04;99318.78;;;0.73;56.53
15884;BME280;8040;50.254;10.960;2023-02-28T07:41:30;99319.34;;;0.81;56.70
15884;BME280;8040;50.254;10.960;2023-02-28T07:43:58;99307.22;;;0.92;56.47
15884;BME280;8040;50.254;10.960;2023-02-28T07:46:25;99319.44;;;1.12;55.94
15884;BME280;8040;50.254;10.960;2023-02-28T07:48:51;99333.88;;;0.98;55.69
15884;BME280;8040;50.254;10.960;2023-02-28T07:51:16;99322.00;;;0.94;55.81
15884;BME280;8040;50.254;10.960;2023-02-28T07:53:42;99328.91;;;1.08;55.60
15884;BME280;8040;50.254;10.960;2023-02-28T07:56:08;99330.75;;;1.14;55.65
15884;BME280;8040;50.254;10.960;2023-02-28T07:58:33;99321.78;;;1.33;55.28
15884;BME280;8040;50.254;10.960;2023-02-28T08:01:09;99333.84;;;1.42;54.94
15884;BME280;8040;50.254;10.960;2023-02-28T08:03:35;99318.88;;;1.41;54.74
15884;BME280;8040;50.254;10.960;2023-02-28T08:06:02;99333.63;;;1.50;54.40
15884;BME280;8040;50.254;10.960;2023-02-28T08:08:28;99322.97;;;1.44;53.95
15884;BME280;8040;50.254;10.960;2023-02-28T08:10:59;99326.03;;;1.47;53.86
15884;BME280;8040;50.254;10.960;2023-02-28T08:13:28;99329.25;;;1.56;53.84
15884;BME280;8040;50.254;10.960;2023-02-28T08:15:54;99320.25;;;1.50;53.61
15884;BME280;8040;50.254;10.960;2023-02-28T08:23:36;99310.66;;;1.36;52.98
15884;BME280;8040;50.254;10.960;2023-02-28T08:26:02;99322.97;;;1.44;52.75
15884;BME280;8040;50.254;10.960;2023-02-28T08:28:29;99322.00;;;1.32;52.62
15884;BME280;8040;50.254;10.960;2023-02-28T08:30:55;99315.34;;;1.10;51.63
15884;BME280;8040;50.254;10.960;2023-02-28T08:33:21;99315.00;;;0.93;52.55
15884;BME280;8040;50.254;10.960;2023-02-28T08:35:46;99327.50;;;0.99;52.23
15884;BME280;8040;50.254;10.960;2023-02-28T08:38:12;99307.19;;;0.98;52.68
15884;BME280;8040;50.254;10.960;2023-02-28T08:40:37;99312.72;;;0.97;51.25
15884;BME280;8040;50.254;10.960;2023-02-28T08:43:03;99309.00;;;1.04;51.34
15884;BME280;8040;50.254;10.960;2023-02-28T08:45:28;99306.69;;;1.14;50.94
15884;BME280;8040;50.254;10.960;2023-02-28T08:47:54;99307.03;;;1.24;50.87
15884;BME280;8040;50.254;10.960;2023-02-28T08:50:20;99301.44;;;1.32;49.81
15884;BME280;8040;50.254;10.960;2023-02-28T08:52:46;99313.00;;;1.57;49.88
15884;BME280;8040;50.254;10.960;2023-02-28T08:55:11;99320.03;;;1.52;47.47
15884;BME280;8040;50.254;10.960;2023-02-28T08:57:36;99301.44;;;1.32;48.39
15884;BME280;8040;50.254;10.960;2023-02-28T09:00:03;99289.94;;;1.32;47.75
15884;BME280;8040;50.254;10.960;2023-02-28T09:02:30;99306.13;;;1.43;48.08
15884;BME280;8040;50.254;10.960;2023-02-28T09:04:57;99307.22;;;1.60;48.04
15884;BME280;8040;50.254;10.960;2023-02-28T09:07:23;99278.91;;;1.53;48.22
15884;BME280;8040;50.254;10.960;2023-02-28T09:10:01;99294.63;;;1.67;47.93
15884;BME280;8040;50.254;10.960;2023-02-28T09:12:33;99292.78;;;1.68;47.74
15884;BME280;8040;50.254;10.960;2023-02-28T09:14:58;99300.69;;;1.81;47.86
15884;BME280;8040;50.254;10.960;2023-02-28T09:17:24;99307.69;;;2.06;48.00
15884;BME280;8040;50.254;10.960;2023-02-28T09:19:49;99308.19;;;1.97;48.03
15884;BME280;8040;50.254;10.960;2023-02-28T09:22:14;99293.81;;;1.91;48.56
15884;BME280;8040;50.254;10.960;2023-02-28T09:24:41;99309.78;;;2.04;48.31
15884;BME280;8040;50.254;10.960;2023-02-28T09:27:06;99313.19;;;2.11;48.03
15884;BME280;8040;50.254;10.960;2023-02-28T09:29:33;99281.16;;;1.80;48.19
15884;BME280;8040;50.254;10.960;2023-02-28T09:31:59;99310.22;;;1.95;47.10
15884;BME280;8040;50.254;10.960;2023-02-28T09:34:26;99312.28;;;1.99;46.22
15884;BME280;8040;50.254;10.960;2023-02-28T09:36:52;99310.56;;;2.05;45.87
15884;BME280;8040;50.254;10.960;2023-02-28T09:39:21;99309.47;;;2.12;45.58
15884;BME280;8040;50.254;10.960;2023-02-28T09:41:49;99298.63;;;2.07;45.12
15884;BME280;8040;50.254;10.960;2023-02-28T09:44:22;99293.22;;;2.14;44.18
15884;BME280;8040;50.254;10.960;2023-02-28T09:46:54;99292.44;;;2.07;43.35
15884;BME280;8040;50.254;10.960;2023-02-28T09:49:24;99321.81;;;2.13;42.49
15884;BME280;8040;50.254;10.960;2023-02-28T09:52:01;99290.41;;;2.02;42.75
15884;BME280;8040;50.254;10.960;2023-02-28T09:54:29;99308.44;;;2.13;42.60
15884;BME280;8040;50.254;10.960;2023-02-28T09:57:04;99315.16;;;2.22;42.96
15884;BME280;8040;50.254;10.960;2023-02-28T09:59:57;99288.94;;;1.82;42.75
15884;BME280;8040;50.254;10.960;2023-02-28T10:02:45;99312.00;;;2.07;43.34
15884;BME280;8040;50.254;10.960;2023-02-28T10:05:17;99308.56;;;2.00;42.67
15884;BME280;8040;50.254;10.960;2023-02-28T10:08:19;99325.47;;;2.19;43.05
15884;BME280;8040;50.254;10.960;2023-02-28T10:10:58;99284.91;;;1.97;42.26
15884;BME280;8040;50.254;10.960;2023-02-28T10:13:35;99310.56;;;2.29;42.63
15884;BME280;8040;50.254;10.960;2023-02-28T10:16:05;99306.53;;;2.38;42.64
15884;BME280;8040;50.254;10.960;2023-02-28T10:18:56;99320.84;;;2.50;42.33
15884;BME280;8040;50.254;10.960;2023-02-28T10:21:36;99309.81;;;2.58;41.83
15884;BME280;8040;50.254;10.960;2023-02-28T10:24:29;99304.03;;;2.43;41.88
15884;BME280;8040;50.254;10.960;2023-02-28T10:27:06;99328.06;;;2.50;42.47
15884;BME280;8040;50.254;10.960;2023-02-28T10:29:37;99306.53;;;2.38;41.91
15884;BME280;8040;50.254;10.960;2023-02-28T10:32:10;99315.31;;;2.45;42.07
15884;BME280;8040;50.254;10.960;2023-02-28T10:34:39;99327.16;;;2.38;41.66
15884;BME280;8040;50.254;10.960;2023-02-28T10:37:04;99294.50;;;2.29;41.67
15884;BME280;8040;50.254;10.960;2023-02-28T10:39:38;99328.13;;;2.43;41.80
15884;BME280;8040;50.254;10.960;2023-02-28T10:42:05;99313.78;;;2.56;41.23
15884;BME280;8040;50.254;10.960;2023-02-28T10:44:43;99323.34;;;2.45;41.52
15884;BME280;8040;50.254;10.960;2023-02-28T10:47:15;99308.50;;;2.49;41.44
15884;BME280;8040;50.254;10.960;2023-02-28T10:49:47;99313.25;;;2.47;41.52
15884;BME280;8040;50.254;10.960;2023-02-28T10:52:13;99297.94;;;2.54;41.88
15884;BME280;8040;50.254;10.960;2023-02-28T10:54:38;99307.16;;;2.58;42.06
15884;BME280;8040;50.254;10.960;2023-02-28T10:57:20;99305.81;;;2.67;41.96
15884;BME280;8040;50.254;10.960;2023-02-28T10:59:51;99296.06;;;2.73;41.71
15884;BME280;8040;50.254;10.960;2023-02-28T11:02:33;99318.03;;;2.81;41.42
15884;BME280;8040;50.254;10.960;2023-02-28T11:04:59;99297.56;;;2.69;41.46
15884;BME280;8040;50.254;10.960;2023-02-28T11:07:25;99299.56;;;2.73;41.55
15884;BME280;8040;50.254;10.960;2023-02-28T11:09:52;99304.09;;;2.91;41.79
15884;BME280;8040;50.254;10.960;2023-02-28T11:12:29;99298.53;;;2.92;40.81
15884;BME280;8040;50.254;10.960;2023-02-28T11:15:01;99303.13;;;3.03;41.70
15884;BME280;8040;50.254;10.960;2023-02-28T11:17:31;99295.44;;;3.07;41.25
15884;BME280;8040;50.254;10.960;2023-02-28T11:20:07;99314.72;;;3.15;40.63
15884;BME280;8040;50.254;10.960;2023-02-28T11:22:46;99302.00;;;3.11;40.87
15884;BME280;8040;50.254;10.960;2023-02-28T11:25:24;99313.38;;;3.06;40.56
15884;BME280;8040;50.254;10.960;2023-02-28T11:27:53;99294.06;;;2.86;41.09
15884;BME280;8040;50.254;10.960;2023-02-28T11:35:47;99296.78;;;2.98;41.21
15884;BME280;8040;50.254;10.960;2023-02-28T11:38:14;99291.94;;;3.06;41.06
15884;BME280;8040;50.254;10.960;2023-02-28T11:46:19;99284.41;;;3.15;41.38
15884;BME280;8040;50.254;10.960;2023-02-28T11:52:00;99278.97;;;3.21;40.85
15884;BME280;8040;50.254;10.960;2023-02-28T11:57:33;99259.94;;;3.23;40.82
15884;BME280;8040;50.254;10.960;2023-02-28T12:14:00;99269.16;;;3.56;40.40
15884;BME280;8040;50.254;10.960;2023-02-28T12:24:40;99264.66;;;3.80;40.92
15884;BME280;8040;50.254;10.960;2023-02-28T12:27:13;99250.53;;;3.73;41.35
15884;BME280;8040;50.254;10.960;2023-02-28T12:32:36;99262.34;;;3.72;41.26
15884;BME280;8040;50.254;10.960;2023-02-28T12:37:41;99242.25;;;3.74;40.70
15884;BME280;8040;50.254;10.960;2023-02-28T12:40:16;99245.56;;;3.99;40.59
15884;BME280;8040;50.254;10.960;2023-02-28T12:42:47;99244.22;;;3.67;40.40
15884;BME280;8040;50.254;10.960;2023-02-28T12:45:20;99235.72;;;3.82;40.61
15884;BME280;8040;50.254;10.960;2023-02-28T12:47:51;99233.25;;;3.80;40.54
15884;BME280;8040;50.254;10.960;2023-02-28T12:50:19;99242.38;;;3.79;40.69
15884;BME280;8040;50.254;10.960;2023-02-28T12:53:07;99247.75;;;3.79;40.69
15884;BME280;8040;50.254;10.960;2023-02-28T12:55:52;99254.03;;;3.73;40.94
15884;BME280;8040;50.254;10.960;2023-02-28T12:58:29;99230.31;;;3.47;41.30
15884;BME280;8040;50.254;10.960;2023-02-28T13:09:24;99223.81;;;4.01;40.97
15884;BME280;8040;50.254;10.960;2023-02-28T13:11:51;99232.47;;;4.03;40.79
15884;BME280;8040;50.254;10.960;2023-02-28T13:14:35;99220.81;;;4.09;40.84
15884;BME280;8040;50.254;10.960;2023-02-28T13:19:59;99237.72;;;3.98;40.98
15884;BME280;8040;50.254;10.960;2023-02-28T13:24:52;99235.75;;;4.05;40.78
15884;BME280;8040;50.254;10.960;2023-02-28T13:29:43;99222.56;;;4.15;41.03
15884;BME280;8040;50.254;10.960;2023-02-28T13:37:41;99236.53;;;4.40;41.18
15884;BME280;8040;50.254;10.960;2023-02-28T13:42:37;99218.00;;;3.92;41.26
15884;BME280;8040;50.254;10.960;2023-02-28T13:47:48;99227.34;;;4.01;41.59
15884;BME280;8040;50.254;10.960;2023-02-28T13:56:06;99223.13;;;4.40;41.11
15884;BME280;8040;50.254;10.960;2023-02-28T14:07:10;99202.53;;;4.45;41.12
15884;BME280;8040;50.254;10.960;2023-02-28T14:09:47;99198.00;;;4.34;41.42
15884;BME280;8040;50.254;10.960;2023-02-28T14:20:42;99209.94;;;4.27;41.65
15884;BME280;8040;50.254;10.960;2023-02-28T14:23:17;99208.53;;;4.24;42.21
15884;BME280;8040;50.254;10.960;2023-02-28T14:29:02;99205.75;;;4.19;42.71
15884;BME280;8040;50.254;10.960;2023-02-28T14:31:51;99202.81;;;4.21;42.49
15884;BME280;8040;50.254;10.960;2023-02-28T14:34:35;99194.63;;;4.27;42.72
15884;BME280;8040;50.254;10.960;2023-02-28T14:37:13;99208.63;;;4.41;42.51
15884;BME280;8040;50.254;10.960;2023-02-28T14:39:41;99200.91;;;4.44;42.01
15884;BME280;8040;50.254;10.960;2023-02-28T14:42:29;99190.19;;;4.33;42.03
15884;BME280;8040;50.254;10.960;2023-02-28T14:44:55;99197.19;;;4.34;42.36
15884;BME280;8040;50.254;10.960;2023-02-28T14:47:28;99197.31;;;4.39;42.23
15884;BME280;8040;50.254;10.960;2023-02-28T14:49:55;99184.00;;;4.32;42.04
15884;BME280;8040;50.254;10.960;2023-02-28T14:52:29;99198.03;;;4.23;42.16
15884;BME280;8040;50.254;10.960;2023-02-28T14:54:57;99206.78;;;4.18;42.72
15884;BME280;8040;50.254;10.960;2023-02-28T14:57:29;99190.09;;;4.16;42.32
15884;BME280;8040;50.254;10.960;2023-02-28T15:00:14;99189.34;;;4.44;42.30
15884;BME280;8040;50.254;10.960;2023-02-28T15:02:41;99189.31;;;4.55;42.17
15884;BME280;8040;50.254;10.960;2023-02-28T15:07:35;99192.38;;;4.47;42.03
15884;BME280;8040;50.254;10.960;2023-02-28T15:10:26;99206.16;;;4.39;42.27
15884;BME280;8040;50.254;10.960;2023-02-28T15:12:57;99166.38;;;4.25;42.30
15884;BME280;8040;50.254;10.960;2023-02-28T15:18:13;99192.09;;;4.21;42.66
15884;BME280;8040;50.254;10.960;2023-02-28T15:20:41;99186.91;;;4.31;42.50
15884;BME280;8040;50.254;10.960;2023-02-28T15:23:08;99170.34;;;4.22;42.55
15884;BME280;8040;50.254;10.960;2023-02-28T15:25:34;99190.66;;;4.30;42.23
15884;BME280;8040;50.254;10.960;2023-02-28T15:28:00;99186.13;;;4.30;42.25
15884;BME280;8040;50.254;10.960;2023-02-28T15:30:28;99198.59;;;4.25;42.48
15884;BME280;8040;50.254;10.960;2023-02-28T15:33:04;99189.13;;;4.22;42.86
15884;BME280;8040;50.254;10.960;2023-02-28T15:35:32;99190.44;;;4.20;43.04
15884;BME280;8040;50.254;10.960;2023-02-28T15:38:03;99198.16;;;4.28;43.27
15884;BME280;8040;50.254;10.960;2023-02-28T15:40:38;99188.53;;;4.32;42.63
15884;BME280;8040;50.254;10.960;2023-02-28T15:43:11;99205.97;;;4.18;42.77
15884;BME280;8040;50.254;10.960;2023-02-28T15:45:51;99193.03;;;4.03;43.26
15884;BME280;8040;50.254;10.960;2023-02-28T15:51:17;99198.88;;;4.00;43.56
15884;BME280;8040;50.254;10.960;2023-02-28T15:56:26;99175.41;;;3.84;43.75
15884;BME280;8040;50.254;10.960;2023-02-28T15:58:55;99197.44;;;3.86;43.96
15884;BME280;8040;50.254;10.960;2023-02-28T16:01:28;99191.63;;;3.89;43.99